createdAt,value
2022-09-26T00:01:41.638Z,7.64
2022-09-26T00:04:15.814Z,7.59
2022-09-26T00:06:45.192Z,7.56
2022-09-26T00:09:14.106Z,7.53
2022-09-26T00:11:42.646Z,7.52
2022-09-26T00:14:14.752Z,7.49
2022-09-26T00:16:43.731Z,7.46
2022-09-26T00:19:12.358Z,7.41
2022-09-26T00:21:40.646Z,7.39
2022-09-26T00:24:10.185Z,7.34
2022-09-26T00:26:39.040Z,7.31
2022-09-26T00:29:10.669Z,7.28
2022-09-26T00:31:40.956Z,7.28
2022-09-26T00:34:09.097Z,7.25
2022-09-26T00:36:38.697Z,7.24
2022-09-26T00:39:08.751Z,7.27
2022-09-26T00:41:38.637Z,7.39
2022-09-26T00:44:40.078Z,7.39
2022-09-26T00:47:20.720Z,7.38
2022-09-26T00:49:50.837Z,7.42
2022-09-26T00:52:20.481Z,7.47
2022-09-26T00:54:51.468Z,7.49
2022-09-26T00:57:25.241Z,7.47
2022-09-26T00:59:58.762Z,7.46
2022-09-26T01:02:29.377Z,7.46
2022-09-26T01:04:59.419Z,7.44
2022-09-26T01:07:30.008Z,7.43
2022-09-26T01:09:59.379Z,7.41
2022-09-26T01:12:29.088Z,7.38
2022-09-26T01:14:57.927Z,7.40
2022-09-26T01:17:27.214Z,7.41
2022-09-26T01:20:15.115Z,7.46
2022-09-26T01:23:17.844Z,7.51
2022-09-26T01:26:15.232Z,7.51
2022-09-26T01:29:04.464Z,7.43
2022-09-26T01:31:42.020Z,7.35
2022-09-26T01:34:19.440Z,7.35
2022-09-26T01:37:07.983Z,7.28
2022-09-26T01:39:48.733Z,7.21
2022-09-26T01:42:27.727Z,7.14
2022-09-26T01:45:02.079Z,7.04
2022-09-26T01:47:41.285Z,6.97
2022-09-26T01:50:16.444Z,6.92
2022-09-26T01:52:50.906Z,6.87
2022-09-26T01:55:22.598Z,6.85
2022-09-26T01:57:56.514Z,6.82
2022-09-26T02:00:24.639Z,6.78
2022-09-26T02:02:57.667Z,6.72
2022-09-26T02:05:32.804Z,6.76
2022-09-26T02:08:05.878Z,6.71
2022-09-26T02:10:37.488Z,6.72
2022-09-26T02:13:12.302Z,6.67
2022-09-26T02:15:41.352Z,6.66
2022-09-26T02:18:16.447Z,6.63
2022-09-26T02:20:49.279Z,6.67
2022-09-26T02:23:17.663Z,6.63
2022-09-26T02:25:46.224Z,6.63
2022-09-26T02:28:15.989Z,6.64
2022-09-26T02:30:47.045Z,6.64
2022-09-26T02:33:17.366Z,6.63
2022-09-26T02:35:57.648Z,6.62
2022-09-26T02:38:31.217Z,6.60
2022-09-26T02:41:23.342Z,6.61
2022-09-26T02:44:17.520Z,6.64
2022-09-26T02:47:11.278Z,6.68
2022-09-26T02:49:54.730Z,6.77
2022-09-26T02:52:35.964Z,6.86
2022-09-26T02:55:15.870Z,6.88
2022-09-26T02:57:50.847Z,6.88
2022-09-26T03:00:23.216Z,6.88
2022-09-26T03:02:58.379Z,6.88
2022-09-26T03:05:30.405Z,6.87
2022-09-26T03:08:03.982Z,6.86
2022-09-26T03:10:33.856Z,6.87
2022-09-26T03:13:07.592Z,6.82
2022-09-26T03:15:38.281Z,6.79
2022-09-26T03:18:10.729Z,6.74
2022-09-26T03:20:40.796Z,6.70
2022-09-26T03:23:09.620Z,6.69
2022-09-26T03:25:38.601Z,6.68
2022-09-26T03:28:10.458Z,6.65
2022-09-26T03:30:38.987Z,6.65
2022-09-26T03:33:36.086Z,6.52
2022-09-26T03:36:07.333Z,6.43
2022-09-26T03:38:35.248Z,6.37
2022-09-26T03:41:17.390Z,6.35
2022-09-26T03:43:51.025Z,6.36
2022-09-26T03:46:19.192Z,6.32
2022-09-26T03:48:47.250Z,6.27
2022-09-26T03:51:16.625Z,6.34
2022-09-26T03:53:47.066Z,6.37
2022-09-26T03:56:19.500Z,6.36
2022-09-26T03:58:48.972Z,6.34
2022-09-26T04:01:18.394Z,6.33
2022-09-26T04:03:50.897Z,6.28
2022-09-26T04:06:21.465Z,6.21
2022-09-26T04:08:53.279Z,6.18
2022-09-26T04:11:24.389Z,6.18
2022-09-26T04:13:54.196Z,6.18
2022-09-26T04:16:27.518Z,6.13
2022-09-26T04:19:04.520Z,6.12
2022-09-26T04:21:34.636Z,6.20
2022-09-26T04:24:03.485Z,6.31
2022-09-26T04:26:32.009Z,6.42
2022-09-26T04:28:59.932Z,6.52
2022-09-26T04:31:48.002Z,6.59
2022-09-26T04:34:23.458Z,6.70
2022-09-26T04:36:56.463Z,6.71
2022-09-26T04:39:24.784Z,6.69
2022-09-26T04:41:53.443Z,6.71
2022-09-26T04:44:22.354Z,6.70
2022-09-26T04:46:50.229Z,6.71
2022-09-26T04:49:20.702Z,6.78
2022-09-26T04:51:48.747Z,6.83
2022-09-26T04:54:18.246Z,7.01
2022-09-26T04:56:47.386Z,7.14
2022-09-26T04:59:15.683Z,7.29
2022-09-26T05:01:56.739Z,7.37
2022-09-26T05:04:59.812Z,7.41
2022-09-26T05:07:29.409Z,7.51
2022-09-26T05:09:58.704Z,7.58
2022-09-26T05:12:33.228Z,7.67
2022-09-26T05:15:01.707Z,7.77
2022-09-26T05:17:31.026Z,7.85
2022-09-26T05:20:02.514Z,7.93
2022-09-26T05:22:40.807Z,7.96
2022-09-26T05:25:29.391Z,8.00
2022-09-26T05:27:57.373Z,8.05
2022-09-26T05:30:27.002Z,8.15
2022-09-26T05:32:55.073Z,8.15
2022-09-26T05:35:23.513Z,8.16
2022-09-26T05:37:59.350Z,8.17
2022-09-26T05:40:46.802Z,8.25
2022-09-26T05:43:15.095Z,8.22
2022-09-26T05:45:44.243Z,8.26
2022-09-26T05:48:15.365Z,8.30
2022-09-26T05:50:45.004Z,8.28
2022-09-26T05:53:13.304Z,8.33
2022-09-26T05:55:42.838Z,8.37
2022-09-26T05:58:25.011Z,8.35
2022-09-26T06:01:25.477Z,8.46
2022-09-26T06:04:03.475Z,8.34
2022-09-26T06:06:31.564Z,8.36
2022-09-26T06:09:10.282Z,8.35
2022-09-26T06:12:02.909Z,8.37
2022-09-26T06:14:31.983Z,8.50
2022-09-26T06:16:59.973Z,8.51
2022-09-26T06:19:27.924Z,8.63
2022-09-26T06:21:56.008Z,8.83
2022-09-26T06:24:24.056Z,9.01
2022-09-26T06:26:56.362Z,9.19
2022-09-26T06:29:26.695Z,9.30
2022-09-26T06:31:54.922Z,9.36
2022-09-26T06:34:26.373Z,9.64
2022-09-26T06:36:57.329Z,9.75
2022-09-26T06:39:31.385Z,9.82
2022-09-26T06:41:59.312Z,9.84
2022-09-26T06:44:49.440Z,10.01
2022-09-26T06:47:27.096Z,10.00
2022-09-26T06:50:13.329Z,10.00
2022-09-26T06:52:45.474Z,9.97
2022-09-26T06:55:15.114Z,9.88
2022-09-26T06:57:45.170Z,9.74
2022-09-26T07:00:16.800Z,9.71
2022-09-26T07:03:03.380Z,9.76
2022-09-26T07:05:49.644Z,9.85
2022-09-26T07:08:17.955Z,10.03
2022-09-26T07:10:47.100Z,10.39
2022-09-26T07:13:23.099Z,10.69
2022-09-26T07:15:53.388Z,10.93
2022-09-26T07:18:47.358Z,11.15
2022-09-26T07:21:23.273Z,11.47
2022-09-26T07:24:13.944Z,11.61
2022-09-26T07:26:42.420Z,11.82
2022-09-26T07:29:10.856Z,11.84
2022-09-26T07:31:40.924Z,12.01
2022-09-26T07:34:24.818Z,12.11
2022-09-26T07:36:54.012Z,12.12
2022-09-26T07:39:22.860Z,12.20
2022-09-26T07:41:51.144Z,12.45
2022-09-26T07:45:09.249Z,12.78
2022-09-26T07:47:26.027Z,12.95
2022-09-26T07:50:14.926Z,13.11
2022-09-26T07:53:02.831Z,13.25
2022-09-26T07:55:33.684Z,13.02
2022-09-26T07:58:30.724Z,13.07
2022-09-26T08:01:12.285Z,13.12
2022-09-26T08:04:06.259Z,13.03
2022-09-26T08:06:38.345Z,12.88
2022-09-26T08:09:07.885Z,12.33
2022-09-26T08:11:55.736Z,12.26
2022-09-26T08:14:37.376Z,12.15
2022-09-26T08:17:18.379Z,11.95
2022-09-26T08:19:47.964Z,12.34
2022-09-26T08:22:16.030Z,12.60
2022-09-26T08:24:49.610Z,12.57
2022-09-26T08:27:43.970Z,12.97
2022-09-26T08:30:13.483Z,13.23
2022-09-26T08:32:42.053Z,13.30
2022-09-26T08:35:12.215Z,13.26
2022-09-26T08:38:02.665Z,13.36
2022-09-26T08:41:01.662Z,13.12
2022-09-26T08:43:54.007Z,13.33
2022-09-26T08:46:38.938Z,13.65
2022-09-26T08:49:40.080Z,13.58
2022-09-26T08:52:22.139Z,13.39
2022-09-26T08:54:53.049Z,13.16
2022-09-26T08:57:31.455Z,13.33
2022-09-26T08:59:59.703Z,13.52
2022-09-26T09:02:34.459Z,14.00
2022-09-26T09:05:12.167Z,14.11
2022-09-26T09:07:49.838Z,14.46
2022-09-26T09:10:21.962Z,14.67
2022-09-26T09:13:02.081Z,14.59
2022-09-26T09:16:04.719Z,15.02
2022-09-26T09:18:59.141Z,15.07
2022-09-26T09:22:06.740Z,14.91
2022-09-26T09:24:54.626Z,14.79
2022-09-26T09:30:24.479Z,15.10
2022-09-26T09:33:19.274Z,15.13
2022-09-26T09:35:56.068Z,15.00
2022-09-26T09:38:35.356Z,14.77
2022-09-26T09:41:14.856Z,15.04
2022-09-26T09:43:47.502Z,15.10
2022-09-26T09:46:22.971Z,15.20
2022-09-26T09:48:56.232Z,14.83
2022-09-26T09:51:45.282Z,14.62
2022-09-26T09:54:33.466Z,14.31
2022-09-26T09:57:23.366Z,14.07
2022-09-26T10:00:09.773Z,14.06
2022-09-26T10:03:00.107Z,14.00
2022-09-26T10:05:41.936Z,13.96
2022-09-26T10:08:14.742Z,13.96
2022-09-26T10:11:12.676Z,14.11
2022-09-26T10:14:16.727Z,14.15
2022-09-26T10:17:15.671Z,14.21
2022-09-26T10:19:56.906Z,14.33
2022-09-26T10:22:35.078Z,14.43
2022-09-26T10:25:08.337Z,14.36
2022-09-26T10:27:39.463Z,14.26
2022-09-26T10:30:25.607Z,14.18
2022-09-26T10:32:57.000Z,14.24
2022-09-26T10:35:45.210Z,14.25
2022-09-26T10:38:23.311Z,14.37
2022-09-26T10:40:59.696Z,14.48
2022-09-26T10:43:31.723Z,14.49
2022-09-26T10:46:15.069Z,14.78
2022-09-26T10:49:16.889Z,15.41
2022-09-26T10:52:15.996Z,15.90
2022-09-26T10:54:57.120Z,15.70
2022-09-26T10:57:29.427Z,15.69
2022-09-26T11:00:00.261Z,16.02
2022-09-26T11:02:29.846Z,16.57
2022-09-26T11:05:18.325Z,16.66
2022-09-26T11:08:10.033Z,16.16
2022-09-26T11:11:01.147Z,16.11
2022-09-26T11:13:48.042Z,15.96
2022-09-26T11:16:20.097Z,16.06
2022-09-26T11:19:03.978Z,16.23
2022-09-26T11:21:42.180Z,15.74
2022-09-26T11:24:19.417Z,16.18
2022-09-26T11:26:59.571Z,16.27
2022-09-26T11:29:43.224Z,17.20
2022-09-26T11:32:29.160Z,17.45
2022-09-26T11:35:02.345Z,18.34
2022-09-26T11:37:58.957Z,18.16
2022-09-26T11:41:00.928Z,18.36
2022-09-26T11:43:44.835Z,18.01
2022-09-26T11:46:35.659Z,17.69
2022-09-26T11:49:31.076Z,17.85
2022-09-26T11:52:39.768Z,17.44
2022-09-26T11:55:18.009Z,17.15
2022-09-26T11:57:54.728Z,16.95
2022-09-26T12:00:27.274Z,16.91
2022-09-26T12:03:20.262Z,17.13
2022-09-26T12:05:55.055Z,17.30
2022-09-26T12:08:42.585Z,17.43
2022-09-26T12:11:25.523Z,17.81
2022-09-26T12:14:03.826Z,17.79
2022-09-26T12:16:41.389Z,17.90
2022-09-26T12:19:21.070Z,17.95
2022-09-26T12:22:16.280Z,17.85
2022-09-26T12:24:55.996Z,17.93
2022-09-26T12:27:30.229Z,17.89
2022-09-26T12:30:06.896Z,17.76
2022-09-26T12:33:07.650Z,17.21
2022-09-26T12:35:47.936Z,16.94
2022-09-26T12:38:33.331Z,16.72
2022-09-26T12:41:14.277Z,16.50
2022-09-26T12:43:55.585Z,16.44
2022-09-26T12:46:34.304Z,16.28
2022-09-26T12:49:20.283Z,16.10
2022-09-26T12:51:54.925Z,16.02
2022-09-26T12:54:44.886Z,15.86
2022-09-26T12:57:25.298Z,15.76
2022-09-26T13:00:10.857Z,15.52
2022-09-26T13:02:57.312Z,15.38
2022-09-26T13:05:52.830Z,15.30
2022-09-26T13:08:32.125Z,14.82
2022-09-26T13:11:12.749Z,14.73
2022-09-26T13:14:08.874Z,14.63
2022-09-26T13:16:47.510Z,14.50
2022-09-26T13:19:23.982Z,14.34
2022-09-26T13:21:59.463Z,14.10
2022-09-26T13:24:34.688Z,14.11
2022-09-26T13:27:13.432Z,14.12
2022-09-26T13:29:47.673Z,14.31
2022-09-26T13:32:24.331Z,14.28
2022-09-26T13:34:57.191Z,14.16
2022-09-26T13:37:38.167Z,14.08
2022-09-26T13:40:21.515Z,13.97
2022-09-26T13:43:02.242Z,14.10
2022-09-26T13:45:46.247Z,14.32
2022-09-26T13:48:22.117Z,14.53
2022-09-26T13:50:55.774Z,14.74
2022-09-26T13:53:30.196Z,14.84
2022-09-26T13:56:30.493Z,14.59
2022-09-26T13:59:05.957Z,14.44
2022-09-26T14:01:36.524Z,14.66
2022-09-26T14:04:18.595Z,14.87
2022-09-26T14:07:27.539Z,15.19
2022-09-26T14:09:59.070Z,15.16
2022-09-26T14:12:50.716Z,15.19
2022-09-26T14:15:22.593Z,15.52
2022-09-26T14:18:26.339Z,15.79
2022-09-26T14:21:04.267Z,15.62
2022-09-26T14:23:38.711Z,15.37
2022-09-26T14:26:11.740Z,14.81
2022-09-26T14:28:41.364Z,15.09
2022-09-26T14:31:22.606Z,15.08
2022-09-26T14:34:07.158Z,14.85
2022-09-26T14:36:36.383Z,14.75
2022-09-26T14:39:06.104Z,14.74
2022-09-26T14:41:35.618Z,14.85
2022-09-26T14:44:07.293Z,15.11
2022-09-26T14:46:37.163Z,14.75
2022-09-26T14:49:08.914Z,14.59
2022-09-26T14:51:40.439Z,14.65
2022-09-26T14:54:20.610Z,14.75
2022-09-26T14:56:51.018Z,14.43
2022-09-26T14:59:38.190Z,14.51
2022-09-26T15:02:31.247Z,14.62
2022-09-26T15:05:07.725Z,14.69
2022-09-26T15:07:37.800Z,14.61
2022-09-26T15:10:18.758Z,14.88
2022-09-26T15:12:51.087Z,14.86
2022-09-26T15:15:35.771Z,14.54
2022-09-26T15:18:09.102Z,14.34
2022-09-26T15:20:45.666Z,13.95
2022-09-26T15:23:29.736Z,13.88
2022-09-26T15:26:02.508Z,13.72
2022-09-26T15:28:34.726Z,13.71
2022-09-26T15:31:27.935Z,13.65
2022-09-26T15:34:02.051Z,13.59
2022-09-26T15:36:34.306Z,13.47
2022-09-26T15:39:07.210Z,13.45
2022-09-26T15:41:52.641Z,13.48
2022-09-26T15:44:23.120Z,13.34
2022-09-26T15:46:51.934Z,13.28
2022-09-26T15:49:22.289Z,13.29
2022-09-26T15:51:54.525Z,13.28
2022-09-26T15:54:28.643Z,13.30
2022-09-26T15:57:01.878Z,13.26
2022-09-26T15:59:33.895Z,13.39
2022-09-26T16:02:04.565Z,13.31
2022-09-26T16:04:34.527Z,13.24
2022-09-26T16:07:05.985Z,13.25
2022-09-26T16:09:35.766Z,13.28
2022-09-26T16:12:10.442Z,13.30
2022-09-26T16:14:48.118Z,13.27
2022-09-26T16:17:24.007Z,13.28
2022-09-26T16:19:54.273Z,13.38
2022-09-26T16:22:37.086Z,13.20
2022-09-26T16:25:27.758Z,13.15
2022-09-26T16:28:02.904Z,13.08
2022-09-26T16:30:40.309Z,13.01
2022-09-26T16:33:30.439Z,12.96
2022-09-26T16:36:05.912Z,12.83
2022-09-26T16:38:36.912Z,12.85
2022-09-26T16:41:08.903Z,12.84
2022-09-26T16:43:39.691Z,12.78
2022-09-26T16:46:13.338Z,12.73
2022-09-26T16:48:43.412Z,12.69
2022-09-26T16:51:17.097Z,12.83
2022-09-26T16:53:47.955Z,12.76
2022-09-26T16:56:19.116Z,12.73
2022-09-26T16:58:51.586Z,12.69
2022-09-26T17:01:37.956Z,12.72
2022-09-26T17:04:11.620Z,12.63
2022-09-26T17:06:39.764Z,12.57
2022-09-26T17:09:15.896Z,12.56
2022-09-26T17:11:47.346Z,12.51
2022-09-26T17:14:17.734Z,12.50
2022-09-26T17:16:47.843Z,12.39
2022-09-26T17:19:17.631Z,12.31
2022-09-26T17:21:46.344Z,12.26
2022-09-26T17:24:19.247Z,12.29
2022-09-26T17:26:53.249Z,12.29
2022-09-26T17:29:26.962Z,12.27
2022-09-26T17:31:56.924Z,12.33
2022-09-26T17:34:28.265Z,12.27
2022-09-26T17:36:58.492Z,12.32
2022-09-26T17:39:29.187Z,12.30
2022-09-26T17:41:59.048Z,12.29
2022-09-26T17:44:27.223Z,12.36
2022-09-26T17:46:57.197Z,12.37
2022-09-26T17:49:28.005Z,12.35
2022-09-26T17:51:58.275Z,12.30
2022-09-26T17:54:31.046Z,12.36
2022-09-26T17:57:00.944Z,12.32
2022-09-26T17:59:29.492Z,12.33
2022-09-26T18:02:01.396Z,12.33
2022-09-26T18:04:31.262Z,12.31
2022-09-26T18:07:04.336Z,12.34
2022-09-26T18:09:36.457Z,12.25
2022-09-26T18:12:05.488Z,12.23
2022-09-26T18:14:35.416Z,12.27
2022-09-26T18:17:04.332Z,12.28
2022-09-26T18:19:32.419Z,12.25
2022-09-26T18:22:00.576Z,12.24
2022-09-26T18:24:30.566Z,12.17
2022-09-26T18:27:03.812Z,12.10
2022-09-26T18:29:36.839Z,12.12
2022-09-26T18:32:07.453Z,12.05
2022-09-26T18:34:35.496Z,12.00
2022-09-26T18:37:04.128Z,11.97
2022-09-26T18:39:32.565Z,11.92
2022-09-26T18:42:06.057Z,11.91
2022-09-26T18:44:35.112Z,11.90
2022-09-26T18:47:06.763Z,11.97
2022-09-26T18:49:37.322Z,11.90
2022-09-26T18:52:05.767Z,11.82
2022-09-26T18:54:35.291Z,11.76
2022-09-26T18:57:22.265Z,11.75
2022-09-26T18:59:50.611Z,11.71
2022-09-26T19:02:23.562Z,11.60
2022-09-26T19:04:52.380Z,11.61
2022-09-26T19:07:21.623Z,11.56
2022-09-26T19:09:50.806Z,11.47
2022-09-26T19:12:21.258Z,11.50
2022-09-26T19:14:49.466Z,11.47
2022-09-26T19:17:17.744Z,11.45
2022-09-26T19:19:45.870Z,11.34
2022-09-26T19:22:17.366Z,11.33
2022-09-26T19:24:48.830Z,11.25
2022-09-26T19:27:22.414Z,11.22
2022-09-26T19:30:01.100Z,11.21
2022-09-26T19:32:33.255Z,11.12
2022-09-26T19:35:04.093Z,11.04
2022-09-26T19:37:32.209Z,11.02
2022-09-26T19:40:00.499Z,10.96
2022-09-26T19:42:29.930Z,10.95
2022-09-26T19:44:59.105Z,10.83
2022-09-26T19:47:29.111Z,10.79
2022-09-26T19:49:57.172Z,10.80
2022-09-26T19:52:25.204Z,10.81
2022-09-26T19:54:53.361Z,10.83
2022-09-26T19:57:23.213Z,10.69
2022-09-26T19:59:52.670Z,10.64
2022-09-26T20:02:22.439Z,10.68
2022-09-26T20:04:51.804Z,10.68
2022-09-26T20:07:20.700Z,10.66
2022-09-26T20:09:49.080Z,10.66
2022-09-26T20:12:17.121Z,10.63
2022-09-26T20:14:45.192Z,10.54
2022-09-26T20:17:20.994Z,10.49
2022-09-26T20:19:50.154Z,10.51
2022-09-26T20:22:21.090Z,10.52
2022-09-26T20:24:53.548Z,10.53
2022-09-26T20:27:24.170Z,10.52
2022-09-26T20:30:10.366Z,10.44
2022-09-26T20:32:40.649Z,10.40
2022-09-26T20:35:10.767Z,10.39
2022-09-26T20:37:41.405Z,10.37
2022-09-26T20:40:17.948Z,10.33
2022-09-26T20:42:49.257Z,10.32
2022-09-26T20:45:20.818Z,10.30
2022-09-26T20:47:50.545Z,10.15
2022-09-26T20:50:20.686Z,10.15
2022-09-26T20:52:48.797Z,10.11
2022-09-26T20:55:18.051Z,10.07
2022-09-26T20:57:46.719Z,10.01
2022-09-26T21:00:16.407Z,10.04
2022-09-26T21:02:45.376Z,9.98
2022-09-26T21:05:19.171Z,9.98
2022-09-26T21:07:47.459Z,9.99
2022-09-26T21:10:23.098Z,9.96
2022-09-26T21:12:51.949Z,9.90
2022-09-26T21:15:20.641Z,9.88
2022-09-26T21:17:49.287Z,9.84
2022-09-26T21:20:27.173Z,9.84
2022-09-26T21:23:13.894Z,9.89
2022-09-26T21:25:41.910Z,9.83
2022-09-26T21:28:21.901Z,9.92
2022-09-26T21:30:50.528Z,9.91
2022-09-26T21:33:21.650Z,9.90
2022-09-26T21:35:51.540Z,9.85
2022-09-26T21:38:21.281Z,9.84
2022-09-26T21:40:51.155Z,9.88
2022-09-26T21:43:23.637Z,9.89
2022-09-26T21:45:52.082Z,9.98
2022-09-26T21:48:20.366Z,9.99
2022-09-26T21:50:57.933Z,9.97
2022-09-26T21:53:30.906Z,9.89
2022-09-26T21:56:07.544Z,9.88
2022-09-26T21:58:39.258Z,9.86
2022-09-26T22:01:07.416Z,9.79
2022-09-26T22:03:35.625Z,9.83
2022-09-26T22:06:07.575Z,9.82
2022-09-26T22:08:36.550Z,9.76
2022-09-26T22:11:05.201Z,9.78
2022-09-26T22:13:35.224Z,9.77
2022-09-26T22:16:07.610Z,9.74
2022-09-26T22:18:37.126Z,9.65
2022-09-26T22:21:06.825Z,9.64
2022-09-26T22:23:36.043Z,9.73
2022-09-26T22:26:04.813Z,9.64
2022-09-26T22:28:33.027Z,9.62
2022-09-26T22:31:02.132Z,9.61
2022-09-26T22:33:30.462Z,9.71
2022-09-26T22:35:58.526Z,9.68
2022-09-26T22:38:27.934Z,9.61
2022-09-26T22:40:57.132Z,9.62
2022-09-26T22:43:25.337Z,9.67
2022-09-26T22:45:53.563Z,9.67
2022-09-26T22:48:22.076Z,9.63
2022-09-26T22:50:50.112Z,9.75
2022-09-26T22:53:18.079Z,9.66
2022-09-26T22:55:55.261Z,9.68
2022-09-26T22:58:23.665Z,9.59
2022-09-26T23:00:51.736Z,9.58
2022-09-26T23:03:19.885Z,9.59
2022-09-26T23:05:48.330Z,9.61
2022-09-26T23:08:16.371Z,9.65
2022-09-26T23:10:50.034Z,9.66
2022-09-26T23:13:19.898Z,9.66
2022-09-26T23:15:48.772Z,9.62
2022-09-26T23:18:16.878Z,9.64
2022-09-26T23:20:45.145Z,9.66
2022-09-26T23:23:14.974Z,9.74
2022-09-26T23:25:45.877Z,9.66
2022-09-26T23:28:13.885Z,9.64
2022-09-26T23:30:43.930Z,9.68
2022-09-26T23:33:12.053Z,9.68
2022-09-26T23:35:40.326Z,9.68
2022-09-26T23:38:08.394Z,9.70
2022-09-26T23:40:37.777Z,9.72
2022-09-26T23:43:06.363Z,9.78
2022-09-26T23:45:34.370Z,9.75
2022-09-26T23:48:04.293Z,9.73
2022-09-26T23:50:32.111Z,9.78
2022-09-26T23:53:04.407Z,9.84
2022-09-26T23:55:34.451Z,9.80
2022-09-26T23:58:02.892Z,9.81
